createdAt,value
2022-09-28T00:02:41.132Z,93.64
2022-09-28T00:05:43.007Z,93.83
2022-09-28T00:08:45.038Z,93.75
2022-09-28T00:11:47.492Z,93.83
2022-09-28T00:14:49.250Z,93.88
2022-09-28T00:17:51.135Z,93.77
2022-09-28T00:21:09.312Z,93.91
2022-09-28T00:24:17.341Z,93.88
2022-09-28T00:27:19.120Z,94.02
2022-09-28T00:30:20.943Z,94.17
2022-09-28T00:33:22.741Z,94.03
2022-09-28T00:36:27.124Z,93.79
2022-09-28T00:39:31.700Z,94.04
2022-09-28T00:42:33.675Z,94.18
2022-09-28T00:45:35.439Z,94.16
2022-09-28T00:48:40.626Z,94.13
2022-09-28T00:51:45.579Z,94.13
2022-09-28T00:54:49.288Z,94.20
2022-09-28T00:57:56.052Z,94.27
2022-09-28T01:00:59.325Z,94.29
2022-09-28T01:04:02.985Z,94.30
2022-09-28T01:07:05.362Z,94.40
2022-09-28T01:10:08.084Z,94.30
2022-09-28T01:13:11.218Z,94.37
2022-09-28T01:16:38.890Z,94.52
2022-09-28T01:19:59.926Z,94.35
2022-09-28T01:23:21.225Z,94.35
2022-09-28T01:26:41.897Z,94.34
2022-09-28T01:29:55.510Z,94.04
2022-09-28T01:33:05.855Z,94.03
2022-09-28T01:36:26.516Z,94.19
2022-09-28T01:39:42.674Z,94.22
2022-09-28T01:42:50.535Z,94.07
2022-09-28T01:46:08.014Z,94.04
2022-09-28T01:49:16.373Z,94.15
2022-09-28T01:52:24.773Z,94.01
2022-09-28T01:55:37.395Z,94.30
2022-09-28T01:58:54.545Z,94.19
2022-09-28T02:02:12.637Z,94.19
2022-09-28T02:05:20.164Z,94.39
2022-09-28T02:08:29.055Z,94.55
2022-09-28T02:11:32.463Z,94.84
2022-09-28T02:14:38.012Z,94.95
2022-09-28T02:17:40.160Z,94.93
2022-09-28T02:20:47.586Z,94.88
2022-09-28T02:24:03.845Z,94.72
2022-09-28T02:27:18.904Z,94.79
2022-09-28T02:30:21.315Z,94.97
2022-09-28T02:33:34.990Z,94.51
2022-09-28T02:36:37.182Z,94.47
2022-09-28T02:39:39.183Z,94.59
2022-09-28T02:42:52.652Z,94.47
2022-09-28T02:46:22.331Z,94.50
2022-09-28T02:50:06.421Z,94.74
2022-09-28T02:53:41.058Z,94.51
2022-09-28T02:56:55.115Z,94.57
2022-09-28T03:00:10.285Z,94.78
2022-09-28T03:03:32.005Z,94.76
2022-09-28T03:06:46.025Z,94.34
2022-09-28T03:10:20.188Z,94.41
2022-09-28T03:13:22.851Z,94.49
2022-09-28T03:16:24.706Z,94.55
2022-09-28T03:19:31.560Z,94.72
2022-09-28T03:22:34.727Z,94.62
2022-09-28T03:25:36.514Z,94.44
2022-09-28T03:28:38.494Z,94.08
2022-09-28T03:31:41.796Z,94.01
2022-09-28T03:34:43.802Z,93.86
2022-09-28T03:37:46.625Z,93.56
2022-09-28T03:40:55.870Z,93.54
2022-09-28T03:43:58.122Z,93.52
2022-09-28T03:47:02.189Z,93.20
2022-09-28T03:50:04.163Z,92.77
2022-09-28T03:53:06.001Z,92.59
2022-09-28T03:56:11.942Z,92.57
2022-09-28T03:59:14.585Z,92.49
2022-09-28T04:02:16.427Z,92.38
2022-09-28T04:05:18.232Z,92.33
2022-09-28T04:08:20.093Z,92.42
2022-09-28T04:11:22.010Z,92.79
2022-09-28T04:14:24.684Z,92.50
2022-09-28T04:17:26.555Z,92.42
2022-09-28T04:20:28.902Z,92.21
2022-09-28T04:23:36.926Z,92.22
2022-09-28T04:26:38.934Z,92.19
2022-09-28T04:29:43.986Z,92.56
2022-09-28T04:32:49.162Z,92.79
2022-09-28T04:35:51.725Z,92.63
2022-09-28T04:38:53.789Z,92.77
2022-09-28T04:41:58.417Z,92.92
2022-09-28T04:45:02.292Z,92.75
2022-09-28T04:48:07.532Z,92.45
2022-09-28T04:51:31.090Z,92.69
2022-09-28T04:54:33.129Z,92.77
2022-09-28T04:57:35.575Z,92.68
2022-09-28T05:00:37.629Z,92.58
2022-09-28T05:04:02.474Z,92.38
2022-09-28T05:07:42.375Z,92.54
2022-09-28T05:10:44.367Z,92.29
2022-09-28T05:13:46.400Z,92.26
2022-09-28T05:16:51.055Z,91.93
2022-09-28T05:20:09.770Z,92.07
2022-09-28T05:23:12.899Z,92.03
2022-09-28T05:26:16.794Z,91.93
2022-09-28T05:29:18.723Z,92.06
2022-09-28T05:32:51.058Z,92.12
2022-09-28T05:36:01.067Z,92.51
2022-09-28T05:39:04.324Z,92.47
2022-09-28T05:42:08.010Z,92.14
2022-09-28T05:45:10.471Z,92.16
2022-09-28T05:48:14.646Z,92.23
2022-09-28T05:51:16.850Z,92.61
2022-09-28T05:54:18.840Z,92.20
2022-09-28T05:57:21.811Z,92.25
2022-09-28T06:00:23.740Z,92.34
2022-09-28T06:03:29.336Z,92.71
2022-09-28T06:06:31.328Z,92.61
2022-09-28T06:09:33.102Z,92.60
2022-09-28T06:12:48.010Z,92.67
2022-09-28T06:15:51.179Z,92.37
2022-09-28T06:18:53.038Z,92.69
2022-09-28T06:22:10.735Z,92.79
2022-09-28T06:25:24.223Z,92.91
2022-09-28T06:28:27.182Z,92.42
2022-09-28T06:31:31.160Z,92.62
2022-09-28T06:34:34.952Z,92.34
2022-09-28T06:37:36.725Z,92.83
2022-09-28T06:40:39.496Z,92.19
2022-09-28T06:43:41.702Z,91.97
2022-09-28T06:47:01.871Z,91.85
2022-09-28T06:50:16.804Z,91.77
2022-09-28T06:53:29.540Z,91.89
2022-09-28T06:56:34.093Z,91.44
2022-09-28T06:59:35.828Z,91.44
2022-09-28T07:02:37.808Z,91.70
2022-09-28T07:05:48.455Z,91.21
2022-09-28T07:09:28.047Z,91.32
2022-09-28T07:12:55.352Z,92.11
2022-09-28T07:16:08.739Z,92.17
2022-09-28T07:19:11.170Z,92.58
2022-09-28T07:22:18.818Z,92.64
2022-09-28T07:25:23.784Z,92.01
2022-09-28T07:28:45.779Z,92.48
2022-09-28T07:32:15.054Z,92.29
2022-09-28T07:35:31.902Z,92.73
2022-09-28T07:38:35.506Z,92.71
2022-09-28T07:41:39.722Z,92.93
2022-09-28T07:44:43.163Z,92.81
2022-09-28T07:47:45.902Z,92.28
2022-09-28T07:51:09.899Z,91.82
2022-09-28T07:54:17.887Z,92.04
2022-09-28T07:57:48.191Z,91.79
2022-09-28T08:01:01.089Z,91.55
2022-09-28T08:04:03.576Z,91.12
2022-09-28T08:07:10.579Z,90.52
2022-09-28T08:10:12.738Z,90.75
2022-09-28T08:13:34.770Z,90.86
2022-09-28T08:16:56.088Z,90.61
2022-09-28T08:20:28.507Z,90.76
2022-09-28T08:23:30.510Z,90.41
2022-09-28T08:26:32.295Z,90.11
2022-09-28T08:29:34.343Z,90.05
2022-09-28T08:33:12.470Z,89.77
2022-09-28T08:36:18.173Z,89.73
2022-09-28T08:39:28.961Z,89.61
2022-09-28T08:43:03.114Z,89.75
2022-09-28T08:46:27.265Z,89.38
2022-09-28T08:49:50.357Z,89.09
2022-09-28T08:53:29.271Z,88.77
2022-09-28T08:57:10.497Z,88.41
2022-09-28T09:00:31.327Z,88.52
2022-09-28T09:03:39.451Z,88.46
2022-09-28T09:07:22.692Z,88.13
2022-09-28T09:10:52.323Z,87.54
2022-09-28T09:14:29.073Z,86.91
2022-09-28T09:17:44.262Z,87.01
2022-09-28T09:20:58.545Z,86.46
2022-09-28T09:24:50.609Z,85.72
2022-09-28T09:28:09.362Z,85.64
2022-09-28T09:31:32.367Z,85.37
2022-09-28T09:34:57.977Z,85.01
2022-09-28T09:38:40.958Z,85.48
2022-09-28T09:42:16.568Z,85.23
2022-09-28T09:46:10.330Z,84.24
2022-09-28T09:49:35.085Z,84.00
2022-09-28T09:52:58.182Z,84.15
2022-09-28T09:56:08.926Z,83.81
2022-09-28T09:59:27.792Z,84.11
2022-09-28T10:02:51.045Z,83.61
2022-09-28T10:06:19.313Z,83.09
2022-09-28T10:09:30.964Z,83.20
2022-09-28T10:12:51.179Z,83.40
2022-09-28T10:15:53.383Z,82.94
2022-09-28T10:19:01.519Z,82.65
2022-09-28T10:22:25.666Z,83.11
2022-09-28T10:25:30.087Z,82.72
2022-09-28T10:28:48.164Z,82.53
2022-09-28T10:31:52.896Z,82.36
2022-09-28T10:35:47.879Z,80.68
2022-09-28T10:38:50.164Z,81.44
2022-09-28T10:42:04.379Z,81.30
2022-09-28T10:45:23.778Z,81.49
2022-09-28T10:48:31.639Z,81.23
2022-09-28T10:51:56.648Z,80.60
2022-09-28T10:55:25.827Z,79.72
2022-09-28T10:58:40.586Z,80.98
2022-09-28T11:01:46.024Z,80.83
2022-09-28T11:04:56.358Z,80.33
2022-09-28T11:08:02.837Z,80.15
2022-09-28T11:11:16.230Z,79.95
2022-09-28T11:14:31.923Z,79.18
2022-09-28T11:17:41.561Z,79.50
2022-09-28T11:20:45.880Z,78.74
2022-09-28T11:24:05.956Z,77.26
2022-09-28T11:27:23.795Z,76.73
2022-09-28T11:30:42.336Z,76.87
2022-09-28T11:34:14.925Z,75.77
2022-09-28T11:37:41.377Z,75.88
2022-09-28T11:40:58.967Z,76.39
2022-09-28T11:44:20.974Z,76.85
2022-09-28T11:47:53.616Z,76.40
2022-09-28T11:51:18.548Z,76.32
2022-09-28T11:54:34.159Z,76.82
2022-09-28T11:57:42.535Z,76.77
2022-09-28T12:00:51.298Z,76.81
2022-09-28T12:04:00.519Z,76.64
2022-09-28T12:07:16.237Z,76.39
2022-09-28T12:10:39.409Z,77.50
2022-09-28T12:13:48.179Z,76.82
2022-09-28T12:17:25.853Z,75.30
2022-09-28T12:20:32.685Z,75.75
2022-09-28T12:23:37.209Z,76.03
2022-09-28T12:26:38.911Z,76.64
2022-09-28T12:29:51.604Z,76.00
2022-09-28T12:33:03.956Z,75.69
2022-09-28T12:36:30.494Z,75.00
2022-09-28T12:39:56.492Z,74.94
2022-09-28T12:43:05.548Z,74.17
2022-09-28T12:46:19.364Z,75.25
2022-09-28T12:50:36.620Z,74.87
2022-09-28T12:53:49.137Z,74.81
2022-09-28T12:57:05.135Z,73.73
2022-09-28T13:00:35.077Z,73.52
2022-09-28T13:04:07.578Z,73.43
2022-09-28T13:07:40.297Z,73.76
2022-09-28T13:10:51.356Z,74.78
2022-09-28T13:14:15.189Z,74.07
2022-09-28T13:17:38.795Z,73.81
2022-09-28T13:21:04.145Z,75.18
2022-09-28T13:24:31.207Z,75.30
2022-09-28T13:27:39.769Z,75.17
2022-09-28T13:30:44.005Z,75.37
2022-09-28T13:33:47.930Z,75.94
2022-09-28T13:37:16.888Z,75.52
2022-09-28T13:40:19.199Z,75.92
2022-09-28T13:43:32.404Z,76.11
2022-09-28T13:46:48.975Z,76.13
2022-09-28T13:50:12.157Z,75.86
2022-09-28T13:53:29.037Z,76.03
2022-09-28T13:56:59.610Z,75.84
2022-09-28T14:00:17.599Z,76.20
2022-09-28T14:03:34.186Z,76.15
2022-09-28T14:06:42.811Z,75.96
2022-09-28T14:10:07.986Z,75.76
2022-09-28T14:13:10.446Z,75.53
2022-09-28T14:16:18.879Z,75.66
2022-09-28T14:19:33.433Z,76.10
2022-09-28T14:22:55.695Z,76.72
2022-09-28T14:26:43.839Z,76.89
2022-09-28T14:29:49.770Z,76.50
2022-09-28T14:32:56.949Z,76.53
2022-09-28T14:36:02.303Z,76.79
2022-09-28T14:39:22.613Z,77.25
2022-09-28T14:42:25.883Z,77.37
2022-09-28T14:45:37.905Z,77.20
2022-09-28T14:49:00.259Z,76.85
2022-09-28T14:52:03.557Z,77.19
2022-09-28T14:55:13.860Z,77.03
2022-09-28T14:58:22.502Z,77.16
2022-09-28T15:01:25.988Z,77.08
2022-09-28T15:04:30.815Z,77.27
2022-09-28T15:07:52.511Z,77.53
2022-09-28T15:10:54.313Z,78.05
2022-09-28T15:14:07.654Z,78.45
2022-09-28T15:17:11.282Z,78.72
2022-09-28T15:20:17.579Z,78.78
2022-09-28T15:23:37.742Z,78.88
2022-09-28T15:26:39.578Z,79.16
2022-09-28T15:30:01.873Z,79.07
2022-09-28T15:33:23.355Z,79.17
2022-09-28T15:36:31.200Z,79.45
2022-09-28T15:39:34.809Z,79.82
2022-09-28T15:42:37.056Z,79.74
2022-09-28T15:45:44.133Z,79.70
2022-09-28T15:48:45.951Z,79.70
2022-09-28T15:51:52.814Z,79.87
2022-09-28T15:54:55.494Z,80.10
2022-09-28T15:58:17.690Z,80.18
2022-09-28T16:01:31.923Z,80.41
2022-09-28T16:04:48.190Z,80.36
2022-09-28T16:07:56.126Z,80.61
2022-09-28T16:11:17.397Z,80.75
2022-09-28T16:14:26.321Z,80.86
2022-09-28T16:17:34.991Z,80.77
2022-09-28T16:20:41.369Z,80.68
2022-09-28T16:23:52.900Z,80.55
2022-09-28T16:27:25.030Z,80.96
2022-09-28T16:30:34.583Z,81.23
2022-09-28T16:33:54.132Z,81.36
2022-09-28T16:36:58.198Z,81.51
2022-09-28T16:40:04.398Z,81.48
2022-09-28T16:43:17.312Z,81.81
2022-09-28T16:46:36.324Z,82.16
2022-09-28T16:49:40.675Z,82.38
2022-09-28T16:53:04.449Z,82.42
2022-09-28T16:56:07.096Z,82.83
2022-09-28T16:59:13.676Z,83.06
2022-09-28T17:02:45.663Z,83.05
2022-09-28T17:05:48.033Z,83.03
2022-09-28T17:08:51.761Z,82.84
2022-09-28T17:11:57.858Z,82.97
2022-09-28T17:15:00.368Z,83.22
2022-09-28T17:18:03.672Z,83.34
2022-09-28T17:21:16.111Z,83.68
2022-09-28T17:24:19.192Z,83.73
2022-09-28T17:27:24.647Z,83.91
2022-09-28T17:30:26.597Z,84.27
2022-09-28T17:33:29.154Z,84.37
2022-09-28T17:36:31.625Z,84.34
2022-09-28T17:39:34.971Z,84.30
2022-09-28T17:42:37.569Z,84.19
2022-09-28T17:49:03.526Z,84.50
2022-09-28T17:52:14.158Z,84.52
2022-09-28T17:55:32.001Z,84.78
2022-09-28T17:58:34.696Z,84.78
2022-09-28T18:01:39.500Z,84.79
2022-09-28T18:04:51.739Z,84.63
2022-09-28T18:07:58.929Z,84.70
2022-09-28T18:11:01.766Z,84.48
2022-09-28T18:14:07.822Z,84.44
2022-09-28T18:17:12.955Z,84.51
2022-09-28T18:20:16.993Z,84.85
2022-09-28T18:23:20.770Z,84.99
2022-09-28T18:26:28.035Z,84.84
2022-09-28T18:29:33.676Z,84.98
2022-09-28T18:32:39.312Z,85.08
2022-09-28T18:35:54.483Z,84.85
2022-09-28T18:39:02.378Z,85.01
2022-09-28T18:42:07.112Z,85.06
2022-09-28T18:45:11.343Z,84.91
2022-09-28T18:48:13.666Z,84.93
2022-09-28T18:51:15.870Z,84.99
2022-09-28T18:54:20.905Z,84.75
2022-09-28T18:57:29.021Z,84.64
2022-09-28T19:00:32.577Z,84.62
2022-09-28T19:03:35.770Z,84.38
2022-09-28T19:06:44.745Z,84.07
2022-09-28T19:09:47.221Z,83.71
2022-09-28T19:12:52.420Z,83.61
2022-09-28T19:15:55.656Z,83.59
2022-09-28T19:18:59.575Z,83.55
2022-09-28T19:22:02.255Z,83.52
2022-09-28T19:25:04.402Z,83.37
2022-09-28T19:28:07.583Z,83.41
2022-09-28T19:31:17.883Z,83.47
2022-09-28T19:34:24.421Z,83.49
2022-09-28T19:37:26.326Z,83.40
2022-09-28T19:40:28.073Z,83.40
2022-09-28T19:43:31.218Z,83.72
2022-09-28T19:46:35.985Z,83.58
2022-09-28T19:49:40.049Z,83.60
2022-09-28T19:52:42.391Z,83.66
2022-09-28T19:55:50.880Z,83.55
2022-09-28T19:58:52.650Z,83.69
2022-09-28T20:01:56.390Z,83.73
2022-09-28T20:04:58.262Z,83.71
2022-09-28T20:08:00.071Z,83.68
2022-09-28T20:11:03.137Z,83.59
2022-09-28T20:14:09.723Z,83.69
2022-09-28T20:17:19.306Z,84.05
2022-09-28T20:20:21.232Z,83.95
2022-09-28T20:23:23.272Z,84.04
2022-09-28T20:26:26.903Z,84.15
2022-09-28T20:29:31.642Z,84.28
2022-09-28T20:32:35.288Z,84.61
2022-09-28T20:35:39.566Z,84.85
2022-09-28T20:38:42.074Z,85.02
2022-09-28T20:41:46.057Z,84.82
2022-09-28T20:44:47.903Z,84.49
2022-09-28T20:47:49.842Z,84.74
2022-09-28T20:51:03.225Z,84.81
2022-09-28T20:54:05.278Z,84.74
2022-09-28T20:57:18.792Z,85.00
2022-09-28T21:00:22.819Z,84.62
2022-09-28T21:03:25.131Z,84.85
2022-09-28T21:06:33.300Z,84.90
2022-09-28T21:09:35.431Z,84.78
2022-09-28T21:12:40.819Z,85.05
2022-09-28T21:15:42.743Z,84.90
2022-09-28T21:18:44.904Z,84.88
2022-09-28T21:21:47.192Z,84.84
2022-09-28T21:24:49.040Z,84.86
2022-09-28T21:27:52.188Z,85.18
2022-09-28T21:30:54.031Z,85.25
2022-09-28T21:33:59.418Z,84.96
2022-09-28T21:37:01.200Z,84.85
2022-09-28T21:40:06.349Z,84.80
2022-09-28T21:43:08.079Z,84.99
2022-09-28T21:46:12.700Z,85.01
2022-09-28T21:49:14.518Z,84.89
2022-09-28T21:52:16.682Z,84.85
2022-09-28T21:55:25.287Z,84.82
2022-09-28T21:58:29.699Z,84.72
2022-09-28T22:01:31.909Z,84.44
2022-09-28T22:04:33.790Z,84.47
2022-09-28T22:07:35.812Z,84.76
2022-09-28T22:10:37.813Z,84.53
2022-09-28T22:13:42.004Z,84.93
2022-09-28T22:16:43.841Z,84.60
2022-09-28T22:19:45.629Z,84.55
2022-09-28T22:22:50.878Z,84.54
2022-09-28T22:26:01.461Z,84.37
2022-09-28T22:29:08.708Z,84.60
2022-09-28T22:32:10.625Z,84.63
2022-09-28T22:35:12.389Z,85.06
2022-09-28T22:38:14.210Z,86.46
2022-09-28T22:41:18.757Z,86.68
2022-09-28T22:44:20.637Z,87.08
2022-09-28T22:47:22.448Z,87.22
2022-09-28T22:50:24.263Z,86.68
2022-09-28T22:53:26.589Z,86.38
2022-09-28T22:56:29.120Z,86.37
2022-09-28T22:59:30.869Z,86.32
2022-09-28T23:02:32.687Z,86.11
2022-09-28T23:05:34.745Z,86.02
2022-09-28T23:08:36.639Z,85.88
2022-09-28T23:11:38.608Z,85.97
2022-09-28T23:14:40.564Z,85.88
2022-09-28T23:17:45.031Z,85.89
2022-09-28T23:20:56.313Z,85.96
2022-09-28T23:24:01.720Z,85.84
2022-09-28T23:27:03.762Z,85.94
2022-09-28T23:30:07.691Z,85.86
2022-09-28T23:33:17.319Z,85.87
2022-09-28T23:36:19.108Z,86.05
2022-09-28T23:39:21.034Z,86.15
2022-09-28T23:42:22.915Z,86.26
2022-09-28T23:45:25.215Z,86.48
2022-09-28T23:48:27.224Z,86.20
2022-09-28T23:51:29.135Z,86.19
2022-09-28T23:54:31.362Z,86.00
2022-09-28T23:57:33.190Z,85.79
